sensor_id;sensor_type;location;lat;lon;timestamp;temperature;humidity
47384;DHT22;33129;52.232;5.192;2022-12-29T00:01:55;12.20;1.00
47384;DHT22;33129;52.232;5.192;2022-12-29T00:04:21;12.20;1.00
47384;DHT22;33129;52.232;5.192;2022-12-29T00:06:50;12.20;1.00
47384;DHT22;33129;52.232;5.192;2022-12-29T00:09:17;12.40;1.00
47384;DHT22;33129;52.232;5.192;2022-12-29T00:11:43;12.40;1.00
47384;DHT22;33129;52.232;5.192;2022-12-29T00:14:10;12.50;1.00
47384;DHT22;33129;52.232;5.192;2022-12-29T00:16:54;12.50;1.00
47384;DHT22;33129;52.232;5.192;2022-12-29T00:19:21;12.40;1.00
47384;DHT22;33129;52.232;5.192;2022-12-29T00:22:05;12.20;1.00
47384;DHT22;33129;52.232;5.192;2022-12-29T00:24:50;12.40;1.00
47384;DHT22;33129;52.232;5.192;2022-12-29T00:27:31;12.30;1.00
47384;DHT22;33129;52.232;5.192;2022-12-29T00:30:20;12.50;1.00
47384;DHT22;33129;52.232;5.192;2022-12-29T00:33:18;12.60;1.00
47384;DHT22;33129;52.232;5.192;2022-12-29T00:36:14;12.60;1.00
47384;DHT22;33129;52.232;5.192;2022-12-29T00:38:56;12.30;1.00
47384;DHT22;33129;52.232;5.192;2022-12-29T00:41:48;12.50;1.00
47384;DHT22;33129;52.232;5.192;2022-12-29T00:44:33;12.30;1.00
47384;DHT22;33129;52.232;5.192;2022-12-29T00:46:58;12.70;1.00
47384;DHT22;33129;52.232;5.192;2022-12-29T00:49:28;12.50;1.00
47384;DHT22;33129;52.232;5.192;2022-12-29T00:52:08;12.40;1.00
47384;DHT22;33129;52.232;5.192;2022-12-29T00:54:37;12.50;1.00
47384;DHT22;33129;52.232;5.192;2022-12-29T00:57:07;12.60;1.00
47384;DHT22;33129;52.232;5.192;2022-12-29T00:59:38;12.60;1.00
47384;DHT22;33129;52.232;5.192;2022-12-29T01:02:05;12.60;1.00
47384;DHT22;33129;52.232;5.192;2022-12-29T01:04:31;12.70;1.00
47384;DHT22;33129;52.232;5.192;2022-12-29T01:06:57;12.50;1.00
47384;DHT22;33129;52.232;5.192;2022-12-29T01:09:23;12.70;1.00
47384;DHT22;33129;52.232;5.192;2022-12-29T01:12:13;12.70;1.00
47384;DHT22;33129;52.232;5.192;2022-12-29T01:14:39;12.50;1.00
47384;DHT22;33129;52.232;5.192;2022-12-29T01:17:07;12.30;1.00
47384;DHT22;33129;52.232;5.192;2022-12-29T01:19:33;12.30;1.00
47384;DHT22;33129;52.232;5.192;2022-12-29T01:21:59;12.40;1.00
47384;DHT22;33129;52.232;5.192;2022-12-29T01:24:24;12.30;1.00
47384;DHT22;33129;52.232;5.192;2022-12-29T01:26:51;12.20;1.00
47384;DHT22;33129;52.232;5.192;2022-12-29T01:29:17;12.20;1.00
47384;DHT22;33129;52.232;5.192;2022-12-29T01:31:43;12.30;1.00
47384;DHT22;33129;52.232;5.192;2022-12-29T01:34:08;12.00;1.00
47384;DHT22;33129;52.232;5.192;2022-12-29T01:36:34;11.90;1.00
47384;DHT22;33129;52.232;5.192;2022-12-29T01:39:01;12.00;1.00
47384;DHT22;33129;52.232;5.192;2022-12-29T01:41:27;12.00;1.00
47384;DHT22;33129;52.232;5.192;2022-12-29T01:43:55;12.00;1.00
47384;DHT22;33129;52.232;5.192;2022-12-29T01:46:40;12.00;1.00
47384;DHT22;33129;52.232;5.192;2022-12-29T01:49:23;12.00;1.00
47384;DHT22;33129;52.232;5.192;2022-12-29T01:51:54;11.80;1.00
47384;DHT22;33129;52.232;5.192;2022-12-29T01:54:38;11.90;1.00
47384;DHT22;33129;52.232;5.192;2022-12-29T01:57:10;12.00;1.00
47384;DHT22;33129;52.232;5.192;2022-12-29T01:59:41;11.90;1.00
47384;DHT22;33129;52.232;5.192;2022-12-29T02:02:14;12.10;1.00
47384;DHT22;33129;52.232;5.192;2022-12-29T02:04:42;11.90;1.00
47384;DHT22;33129;52.232;5.192;2022-12-29T02:07:18;12.30;1.00
47384;DHT22;33129;52.232;5.192;2022-12-29T02:09:50;12.00;1.00
47384;DHT22;33129;52.232;5.192;2022-12-29T02:12:18;12.00;1.00
47384;DHT22;33129;52.232;5.192;2022-12-29T02:14:45;12.20;1.00
47384;DHT22;33129;52.232;5.192;2022-12-29T02:17:28;12.20;1.00
47384;DHT22;33129;52.232;5.192;2022-12-29T02:29:37;12.10;1.00
47384;DHT22;33129;52.232;5.192;2022-12-29T02:35:09;12.20;1.00
47384;DHT22;33129;52.232;5.192;2022-12-29T02:37:55;12.20;1.00
47384;DHT22;33129;52.232;5.192;2022-12-29T02:43:26;12.40;1.00
47384;DHT22;33129;52.232;5.192;2022-12-29T02:45:58;12.50;1.00
47384;DHT22;33129;52.232;5.192;2022-12-29T02:48:41;12.30;1.00
47384;DHT22;33129;52.232;5.192;2022-12-29T02:51:27;12.10;1.00
47384;DHT22;33129;52.232;5.192;2022-12-29T02:53:58;12.20;1.00
47384;DHT22;33129;52.232;5.192;2022-12-29T02:56:44;12.10;1.00
47384;DHT22;33129;52.232;5.192;2022-12-29T02:59:10;12.30;1.00
47384;DHT22;33129;52.232;5.192;2022-12-29T03:11:10;12.20;1.00
47384;DHT22;33129;52.232;5.192;2022-12-29T03:14:06;12.40;1.00
47384;DHT22;33129;52.232;5.192;2022-12-29T03:17:03;12.00;1.00
47384;DHT22;33129;52.232;5.192;2022-12-29T03:19:41;12.30;1.00
47384;DHT22;33129;52.232;5.192;2022-12-29T03:22:22;12.40;1.00
47384;DHT22;33129;52.232;5.192;2022-12-29T03:27:48;12.40;1.00
47384;DHT22;33129;52.232;5.192;2022-12-29T03:30:16;11.90;1.00
47384;DHT22;33129;52.232;5.192;2022-12-29T03:32:55;12.30;1.00
47384;DHT22;33129;52.232;5.192;2022-12-29T03:35:26;12.10;1.00
47384;DHT22;33129;52.232;5.192;2022-12-29T03:38:02;12.20;1.00
47384;DHT22;33129;52.232;5.192;2022-12-29T03:40:32;12.00;1.00
47384;DHT22;33129;52.232;5.192;2022-12-29T03:42:59;12.00;1.00
47384;DHT22;33129;52.232;5.192;2022-12-29T03:45:27;12.00;1.00
47384;DHT22;33129;52.232;5.192;2022-12-29T03:47:53;12.10;1.00
47384;DHT22;33129;52.232;5.192;2022-12-29T03:50:19;12.00;1.00
47384;DHT22;33129;52.232;5.192;2022-12-29T03:52:47;12.20;1.00
47384;DHT22;33129;52.232;5.192;2022-12-29T03:55:13;12.40;1.00
47384;DHT22;33129;52.232;5.192;2022-12-29T03:57:39;12.20;1.00
47384;DHT22;33129;52.232;5.192;2022-12-29T04:00:06;12.10;1.00
47384;DHT22;33129;52.232;5.192;2022-12-29T04:02:32;12.00;1.00
47384;DHT22;33129;52.232;5.192;2022-12-29T04:04:58;12.20;1.00
47384;DHT22;33129;52.232;5.192;2022-12-29T04:07:23;11.90;1.00
47384;DHT22;33129;52.232;5.192;2022-12-29T04:09:49;12.30;1.00
47384;DHT22;33129;52.232;5.192;2022-12-29T04:12:18;12.20;1.00
47384;DHT22;33129;52.232;5.192;2022-12-29T04:14:43;12.00;1.00
47384;DHT22;33129;52.232;5.192;2022-12-29T04:17:14;12.20;1.00
47384;DHT22;33129;52.232;5.192;2022-12-29T04:19:40;12.10;1.00
47384;DHT22;33129;52.232;5.192;2022-12-29T04:22:12;12.00;1.00
47384;DHT22;33129;52.232;5.192;2022-12-29T04:24:37;12.00;1.00
47384;DHT22;33129;52.232;5.192;2022-12-29T04:27:03;11.90;1.00
47384;DHT22;33129;52.232;5.192;2022-12-29T04:29:29;12.20;1.00
47384;DHT22;33129;52.232;5.192;2022-12-29T04:31:55;12.10;1.00
47384;DHT22;33129;52.232;5.192;2022-12-29T04:34:20;12.10;1.00
47384;DHT22;33129;52.232;5.192;2022-12-29T04:36:46;12.20;1.00
47384;DHT22;33129;52.232;5.192;2022-12-29T04:39:12;12.00;1.00
47384;DHT22;33129;52.232;5.192;2022-12-29T04:41:38;12.00;1.00
47384;DHT22;33129;52.232;5.192;2022-12-29T04:44:03;12.10;1.00
47384;DHT22;33129;52.232;5.192;2022-12-29T04:46:32;11.80;1.00
47384;DHT22;33129;52.232;5.192;2022-12-29T04:49:00;12.00;1.00
47384;DHT22;33129;52.232;5.192;2022-12-29T04:51:33;12.00;1.00
47384;DHT22;33129;52.232;5.192;2022-12-29T04:53:59;12.00;1.00
47384;DHT22;33129;52.232;5.192;2022-12-29T04:56:25;11.90;1.00
47384;DHT22;33129;52.232;5.192;2022-12-29T04:58:51;12.10;1.00
47384;DHT22;33129;52.232;5.192;2022-12-29T05:01:16;12.10;1.00
47384;DHT22;33129;52.232;5.192;2022-12-29T05:03:42;12.10;1.00
47384;DHT22;33129;52.232;5.192;2022-12-29T05:06:08;12.20;1.00
47384;DHT22;33129;52.232;5.192;2022-12-29T05:08:33;12.00;1.00
47384;DHT22;33129;52.232;5.192;2022-12-29T05:10:59;12.20;1.00
47384;DHT22;33129;52.232;5.192;2022-12-29T05:13:25;11.90;1.00
47384;DHT22;33129;52.232;5.192;2022-12-29T05:15:51;12.10;1.00
47384;DHT22;33129;52.232;5.192;2022-12-29T05:18:18;11.90;1.00
47384;DHT22;33129;52.232;5.192;2022-12-29T05:20:45;12.00;1.00
47384;DHT22;33129;52.232;5.192;2022-12-29T05:23:11;11.80;1.00
47384;DHT22;33129;52.232;5.192;2022-12-29T05:25:37;11.80;1.00
47384;DHT22;33129;52.232;5.192;2022-12-29T05:28:03;11.90;1.00
47384;DHT22;33129;52.232;5.192;2022-12-29T05:30:29;11.60;1.00
47384;DHT22;33129;52.232;5.192;2022-12-29T05:32:54;11.40;1.00
47384;DHT22;33129;52.232;5.192;2022-12-29T05:35:20;11.50;1.00
47384;DHT22;33129;52.232;5.192;2022-12-29T05:37:46;11.60;1.00
47384;DHT22;33129;52.232;5.192;2022-12-29T05:40:11;11.50;1.00
47384;DHT22;33129;52.232;5.192;2022-12-29T05:42:37;11.30;1.00
47384;DHT22;33129;52.232;5.192;2022-12-29T05:45:03;11.50;1.00
47384;DHT22;33129;52.232;5.192;2022-12-29T05:47:32;11.50;1.00
47384;DHT22;33129;52.232;5.192;2022-12-29T05:49:58;11.40;1.00
47384;DHT22;33129;52.232;5.192;2022-12-29T05:52:24;11.40;1.00
47384;DHT22;33129;52.232;5.192;2022-12-29T05:54:50;11.30;1.00
47384;DHT22;33129;52.232;5.192;2022-12-29T05:57:15;11.20;1.00
47384;DHT22;33129;52.232;5.192;2022-12-29T05:59:41;11.40;1.00
47384;DHT22;33129;52.232;5.192;2022-12-29T06:02:07;11.40;1.00
47384;DHT22;33129;52.232;5.192;2022-12-29T06:04:33;11.50;1.00
47384;DHT22;33129;52.232;5.192;2022-12-29T06:06:58;11.30;1.00
47384;DHT22;33129;52.232;5.192;2022-12-29T06:09:27;11.30;1.00
47384;DHT22;33129;52.232;5.192;2022-12-29T06:11:52;11.40;1.00
47384;DHT22;33129;52.232;5.192;2022-12-29T06:14:18;11.40;1.00
47384;DHT22;33129;52.232;5.192;2022-12-29T06:16:44;11.20;1.00
47384;DHT22;33129;52.232;5.192;2022-12-29T06:19:10;11.10;1.00
47384;DHT22;33129;52.232;5.192;2022-12-29T06:21:35;11.40;1.00
47384;DHT22;33129;52.232;5.192;2022-12-29T06:24:03;11.20;1.00
47384;DHT22;33129;52.232;5.192;2022-12-29T06:26:35;11.20;1.00
47384;DHT22;33129;52.232;5.192;2022-12-29T06:29:04;11.30;1.00
47384;DHT22;33129;52.232;5.192;2022-12-29T06:31:30;11.10;1.00
47384;DHT22;33129;52.232;5.192;2022-12-29T06:33:55;11.00;1.00
47384;DHT22;33129;52.232;5.192;2022-12-29T06:36:21;11.20;1.00
47384;DHT22;33129;52.232;5.192;2022-12-29T06:38:47;11.20;1.00
47384;DHT22;33129;52.232;5.192;2022-12-29T06:41:15;10.90;1.00
47384;DHT22;33129;52.232;5.192;2022-12-29T06:43:44;11.30;1.00
47384;DHT22;33129;52.232;5.192;2022-12-29T06:46:09;11.30;1.00
47384;DHT22;33129;52.232;5.192;2022-12-29T06:48:35;11.30;1.00
47384;DHT22;33129;52.232;5.192;2022-12-29T06:51:01;11.00;1.00
47384;DHT22;33129;52.232;5.192;2022-12-29T06:53:27;11.10;1.00
47384;DHT22;33129;52.232;5.192;2022-12-29T06:55:52;11.10;1.00
47384;DHT22;33129;52.232;5.192;2022-12-29T06:58:18;11.00;1.00
47384;DHT22;33129;52.232;5.192;2022-12-29T07:00:44;11.10;1.00
47384;DHT22;33129;52.232;5.192;2022-12-29T07:03:09;11.40;1.00
47384;DHT22;33129;52.232;5.192;2022-12-29T07:05:35;11.50;1.00
47384;DHT22;33129;52.232;5.192;2022-12-29T07:08:01;11.30;1.00
47384;DHT22;33129;52.232;5.192;2022-12-29T07:10:27;11.40;1.00
47384;DHT22;33129;52.232;5.192;2022-12-29T07:12:53;11.60;1.00
47384;DHT22;33129;52.232;5.192;2022-12-29T07:15:18;11.60;1.00
47384;DHT22;33129;52.232;5.192;2022-12-29T07:17:44;11.40;1.00
47384;DHT22;33129;52.232;5.192;2022-12-29T07:20:10;11.40;1.00
47384;DHT22;33129;52.232;5.192;2022-12-29T07:22:36;11.70;1.00
47384;DHT22;33129;52.232;5.192;2022-12-29T07:25:02;11.40;1.00
47384;DHT22;33129;52.232;5.192;2022-12-29T07:27:28;11.50;1.00
47384;DHT22;33129;52.232;5.192;2022-12-29T07:29:54;11.40;1.00
47384;DHT22;33129;52.232;5.192;2022-12-29T07:32:19;11.50;1.00
47384;DHT22;33129;52.232;5.192;2022-12-29T07:34:45;11.30;1.00
47384;DHT22;33129;52.232;5.192;2022-12-29T07:37:14;11.40;1.00
47384;DHT22;33129;52.232;5.192;2022-12-29T07:39:40;11.30;1.00
47384;DHT22;33129;52.232;5.192;2022-12-29T07:42:06;11.20;1.00
47384;DHT22;33129;52.232;5.192;2022-12-29T07:44:32;11.00;1.00
47384;DHT22;33129;52.232;5.192;2022-12-29T07:46:57;11.20;1.00
47384;DHT22;33129;52.232;5.192;2022-12-29T07:49:23;11.30;1.00
47384;DHT22;33129;52.232;5.192;2022-12-29T07:51:49;11.00;1.00
47384;DHT22;33129;52.232;5.192;2022-12-29T07:54:15;10.90;1.00
47384;DHT22;33129;52.232;5.192;2022-12-29T07:56:43;11.10;1.00
47384;DHT22;33129;52.232;5.192;2022-12-29T07:59:10;11.10;1.00
47384;DHT22;33129;52.232;5.192;2022-12-29T08:01:37;10.90;1.00
47384;DHT22;33129;52.232;5.192;2022-12-29T08:04:03;11.00;1.00
47384;DHT22;33129;52.232;5.192;2022-12-29T08:06:29;11.10;1.00
47384;DHT22;33129;52.232;5.192;2022-12-29T08:08:56;11.10;1.00
47384;DHT22;33129;52.232;5.192;2022-12-29T08:11:23;11.00;1.00
47384;DHT22;33129;52.232;5.192;2022-12-29T08:13:49;10.90;1.00
47384;DHT22;33129;52.232;5.192;2022-12-29T08:16:15;11.20;1.00
47384;DHT22;33129;52.232;5.192;2022-12-29T08:18:41;11.20;1.00
47384;DHT22;33129;52.232;5.192;2022-12-29T08:21:07;11.40;1.00
47384;DHT22;33129;52.232;5.192;2022-12-29T08:23:33;11.30;1.00
47384;DHT22;33129;52.232;5.192;2022-12-29T08:26:00;11.40;1.00
47384;DHT22;33129;52.232;5.192;2022-12-29T08:28:27;11.40;1.00
47384;DHT22;33129;52.232;5.192;2022-12-29T08:30:54;11.10;1.00
47384;DHT22;33129;52.232;5.192;2022-12-29T08:33:21;11.10;1.00
47384;DHT22;33129;52.232;5.192;2022-12-29T08:35:47;11.20;1.00
47384;DHT22;33129;52.232;5.192;2022-12-29T08:38:13;11.30;1.00
47384;DHT22;33129;52.232;5.192;2022-12-29T08:40:39;11.20;1.00
47384;DHT22;33129;52.232;5.192;2022-12-29T08:43:05;11.40;1.00
47384;DHT22;33129;52.232;5.192;2022-12-29T08:45:31;11.00;1.00
47384;DHT22;33129;52.232;5.192;2022-12-29T08:47:57;11.20;1.00
47384;DHT22;33129;52.232;5.192;2022-12-29T08:50:23;11.40;1.00
47384;DHT22;33129;52.232;5.192;2022-12-29T08:52:50;11.10;1.00
47384;DHT22;33129;52.232;5.192;2022-12-29T08:55:16;11.20;1.00
47384;DHT22;33129;52.232;5.192;2022-12-29T08:57:41;11.20;1.00
47384;DHT22;33129;52.232;5.192;2022-12-29T09:00:08;11.20;1.00
47384;DHT22;33129;52.232;5.192;2022-12-29T09:02:34;11.40;1.00
47384;DHT22;33129;52.232;5.192;2022-12-29T09:05:00;11.30;1.00
47384;DHT22;33129;52.232;5.192;2022-12-29T09:07:26;11.30;1.00
47384;DHT22;33129;52.232;5.192;2022-12-29T09:09:51;11.30;1.00
47384;DHT22;33129;52.232;5.192;2022-12-29T09:12:17;11.10;1.00
47384;DHT22;33129;52.232;5.192;2022-12-29T09:14:46;11.30;1.00
47384;DHT22;33129;52.232;5.192;2022-12-29T09:17:12;11.20;1.00
47384;DHT22;33129;52.232;5.192;2022-12-29T09:19:56;11.00;1.00
47384;DHT22;33129;52.232;5.192;2022-12-29T09:22:22;11.00;1.00
47384;DHT22;33129;52.232;5.192;2022-12-29T09:24:47;11.20;1.00
47384;DHT22;33129;52.232;5.192;2022-12-29T09:27:13;10.90;1.00
47384;DHT22;33129;52.232;5.192;2022-12-29T09:29:39;10.90;1.00
47384;DHT22;33129;52.232;5.192;2022-12-29T09:32:04;11.00;1.00
47384;DHT22;33129;52.232;5.192;2022-12-29T09:34:30;10.60;1.00
47384;DHT22;33129;52.232;5.192;2022-12-29T09:36:56;10.70;1.00
47384;DHT22;33129;52.232;5.192;2022-12-29T09:39:22;10.60;1.00
47384;DHT22;33129;52.232;5.192;2022-12-29T09:45:18;10.90;1.00
47384;DHT22;33129;52.232;5.192;2022-12-29T09:47:50;11.00;1.00
47384;DHT22;33129;52.232;5.192;2022-12-29T09:50:30;10.90;1.00
47384;DHT22;33129;52.232;5.192;2022-12-29T09:53:09;10.80;1.00
47384;DHT22;33129;52.232;5.192;2022-12-29T09:55:48;10.80;1.00
47384;DHT22;33129;52.232;5.192;2022-12-29T09:58:27;10.60;1.00
47384;DHT22;33129;52.232;5.192;2022-12-29T10:01:23;10.40;1.00
47384;DHT22;33129;52.232;5.192;2022-12-29T10:04:01;10.60;1.00
47384;DHT22;33129;52.232;5.192;2022-12-29T10:09:25;10.50;1.00
47384;DHT22;33129;52.232;5.192;2022-12-29T10:12:03;10.60;1.00
47384;DHT22;33129;52.232;5.192;2022-12-29T10:17:48;10.70;1.00
47384;DHT22;33129;52.232;5.192;2022-12-29T10:20:38;10.80;1.00
47384;DHT22;33129;52.232;5.192;2022-12-29T10:26:28;10.90;1.00
47384;DHT22;33129;52.232;5.192;2022-12-29T10:29:11;11.10;1.00
47384;DHT22;33129;52.232;5.192;2022-12-29T10:32:05;11.30;1.00
47384;DHT22;33129;52.232;5.192;2022-12-29T10:34:37;11.00;1.00
47384;DHT22;33129;52.232;5.192;2022-12-29T10:37:18;11.10;1.00
47384;DHT22;33129;52.232;5.192;2022-12-29T10:39:52;11.40;1.00
47384;DHT22;33129;52.232;5.192;2022-12-29T10:42:29;11.20;1.00
47384;DHT22;33129;52.232;5.192;2022-12-29T10:45:10;11.10;1.00
47384;DHT22;33129;52.232;5.192;2022-12-29T10:47:58;11.40;1.00
47384;DHT22;33129;52.232;5.192;2022-12-29T10:50:26;11.40;1.00
47384;DHT22;33129;52.232;5.192;2022-12-29T10:52:59;11.30;1.00
47384;DHT22;33129;52.232;5.192;2022-12-29T10:55:30;11.50;1.00
47384;DHT22;33129;52.232;5.192;2022-12-29T10:58:02;11.30;1.00
47384;DHT22;33129;52.232;5.192;2022-12-29T11:00:31;11.30;1.00
47384;DHT22;33129;52.232;5.192;2022-12-29T11:03:35;11.50;1.00
47384;DHT22;33129;52.232;5.192;2022-12-29T11:06:24;11.30;1.00
47384;DHT22;33129;52.232;5.192;2022-12-29T11:08:57;11.70;1.00
47384;DHT22;33129;52.232;5.192;2022-12-29T11:11:36;12.20;1.00
47384;DHT22;33129;52.232;5.192;2022-12-29T11:14:26;12.40;1.00
47384;DHT22;33129;52.232;5.192;2022-12-29T11:17:03;12.70;1.00
47384;DHT22;33129;52.232;5.192;2022-12-29T11:19:34;12.60;1.00
47384;DHT22;33129;52.232;5.192;2022-12-29T11:22:12;12.40;1.00
47384;DHT22;33129;52.232;5.192;2022-12-29T11:24:44;12.20;1.00
47384;DHT22;33129;52.232;5.192;2022-12-29T11:27:25;12.10;1.00
47384;DHT22;33129;52.232;5.192;2022-12-29T11:29:54;12.00;1.00
47384;DHT22;33129;52.232;5.192;2022-12-29T11:32:24;12.10;1.00
47384;DHT22;33129;52.232;5.192;2022-12-29T11:34:51;12.00;1.00
47384;DHT22;33129;52.232;5.192;2022-12-29T11:37:29;12.00;1.00
47384;DHT22;33129;52.232;5.192;2022-12-29T11:40:19;12.10;1.00
47384;DHT22;33129;52.232;5.192;2022-12-29T11:42:52;11.90;1.00
47384;DHT22;33129;52.232;5.192;2022-12-29T11:45:22;12.00;1.00
47384;DHT22;33129;52.232;5.192;2022-12-29T11:50:36;12.20;1.00
47384;DHT22;33129;52.232;5.192;2022-12-29T11:53:26;12.00;1.00
47384;DHT22;33129;52.232;5.192;2022-12-29T11:56:04;12.10;1.00
47384;DHT22;33129;52.232;5.192;2022-12-29T11:58:34;11.90;1.00
47384;DHT22;33129;52.232;5.192;2022-12-29T12:04:04;13.00;1.00
47384;DHT22;33129;52.232;5.192;2022-12-29T12:06:43;13.80;1.00
47384;DHT22;33129;52.232;5.192;2022-12-29T12:09:21;14.10;1.00
47384;DHT22;33129;52.232;5.192;2022-12-29T12:11:52;14.20;1.00
47384;DHT22;33129;52.232;5.192;2022-12-29T12:14:27;14.20;1.00
47384;DHT22;33129;52.232;5.192;2022-12-29T12:17:16;13.60;1.00
47384;DHT22;33129;52.232;5.192;2022-12-29T12:19:53;13.40;1.00
47384;DHT22;33129;52.232;5.192;2022-12-29T12:22:35;13.20;1.00
47384;DHT22;33129;52.232;5.192;2022-12-29T12:25:19;13.40;1.00
47384;DHT22;33129;52.232;5.192;2022-12-29T12:28:05;13.20;1.00
47384;DHT22;33129;52.232;5.192;2022-12-29T12:30:43;12.90;1.00
47384;DHT22;33129;52.232;5.192;2022-12-29T12:33:33;13.50;1.00
47384;DHT22;33129;52.232;5.192;2022-12-29T12:39:21;13.20;1.00
47384;DHT22;33129;52.232;5.192;2022-12-29T12:41:55;13.20;1.00
47384;DHT22;33129;52.232;5.192;2022-12-29T12:48:25;13.00;1.00
47384;DHT22;33129;52.232;5.192;2022-12-29T12:51:07;13.00;1.00
47384;DHT22;33129;52.232;5.192;2022-12-29T12:56:26;12.70;1.00
47384;DHT22;33129;52.232;5.192;2022-12-29T13:10:54;12.70;1.00
47384;DHT22;33129;52.232;5.192;2022-12-29T13:22:30;12.20;1.00
47384;DHT22;33129;52.232;5.192;2022-12-29T13:25:50;12.10;1.00
47384;DHT22;33129;52.232;5.192;2022-12-29T13:28:57;12.10;1.00
47384;DHT22;33129;52.232;5.192;2022-12-29T13:34:44;12.20;1.00
47384;DHT22;33129;52.232;5.192;2022-12-29T13:37:18;12.10;1.00
47384;DHT22;33129;52.232;5.192;2022-12-29T13:39:49;12.20;1.00
47384;DHT22;33129;52.232;5.192;2022-12-29T13:42:19;12.60;1.00
47384;DHT22;33129;52.232;5.192;2022-12-29T13:44:46;12.20;1.00
47384;DHT22;33129;52.232;5.192;2022-12-29T13:47:40;12.10;1.00
47384;DHT22;33129;52.232;5.192;2022-12-29T13:50:19;12.60;1.00
47384;DHT22;33129;52.232;5.192;2022-12-29T13:52:58;12.50;1.00
47384;DHT22;33129;52.232;5.192;2022-12-29T13:58:52;12.40;1.00
47384;DHT22;33129;52.232;5.192;2022-12-29T14:04:27;12.50;1.00
47384;DHT22;33129;52.232;5.192;2022-12-29T14:07:17;12.40;1.00
47384;DHT22;33129;52.232;5.192;2022-12-29T14:09:56;12.50;1.00
47384;DHT22;33129;52.232;5.192;2022-12-29T14:12:38;12.30;1.00
47384;DHT22;33129;52.232;5.192;2022-12-29T14:17:39;12.20;1.00
47384;DHT22;33129;52.232;5.192;2022-12-29T14:20:19;12.20;1.00
47384;DHT22;33129;52.232;5.192;2022-12-29T14:26:00;11.80;1.00
47384;DHT22;33129;52.232;5.192;2022-12-29T14:28:33;11.50;1.00
47384;DHT22;33129;52.232;5.192;2022-12-29T14:36:38;11.20;1.00
47384;DHT22;33129;52.232;5.192;2022-12-29T14:39:41;11.10;1.00
47384;DHT22;33129;52.232;5.192;2022-12-29T14:47:45;11.20;1.00
47384;DHT22;33129;52.232;5.192;2022-12-29T14:50:22;11.20;1.00
47384;DHT22;33129;52.232;5.192;2022-12-29T14:53:02;10.70;1.00
47384;DHT22;33129;52.232;5.192;2022-12-29T14:55:55;11.10;1.00
47384;DHT22;33129;52.232;5.192;2022-12-29T14:58:31;11.20;1.00
47384;DHT22;33129;52.232;5.192;2022-12-29T15:04:05;10.90;1.00
47384;DHT22;33129;52.232;5.192;2022-12-29T15:06:40;10.90;1.00
47384;DHT22;33129;52.232;5.192;2022-12-29T15:09:45;11.10;1.00
47384;DHT22;33129;52.232;5.192;2022-12-29T15:12:44;11.00;1.00
47384;DHT22;33129;52.232;5.192;2022-12-29T15:17:51;10.90;1.00
47384;DHT22;33129;52.232;5.192;2022-12-29T15:20:25;10.80;1.00
47384;DHT22;33129;52.232;5.192;2022-12-29T15:22:57;11.20;1.00
47384;DHT22;33129;52.232;5.192;2022-12-29T15:25:26;11.40;1.00
47384;DHT22;33129;52.232;5.192;2022-12-29T15:27:56;11.40;1.00
47384;DHT22;33129;52.232;5.192;2022-12-29T15:30:25;11.50;1.00
47384;DHT22;33129;52.232;5.192;2022-12-29T15:32:51;11.20;1.00
47384;DHT22;33129;52.232;5.192;2022-12-29T15:35:32;11.00;1.00
47384;DHT22;33129;52.232;5.192;2022-12-29T15:38:00;11.10;1.00
47384;DHT22;33129;52.232;5.192;2022-12-29T15:40:32;11.00;1.00
47384;DHT22;33129;52.232;5.192;2022-12-29T15:46:15;11.00;1.00
47384;DHT22;33129;52.232;5.192;2022-12-29T15:48:41;11.00;1.00
47384;DHT22;33129;52.232;5.192;2022-12-29T15:51:28;10.80;1.00
47384;DHT22;33129;52.232;5.192;2022-12-29T15:53:56;10.90;1.00
47384;DHT22;33129;52.232;5.192;2022-12-29T15:56:28;10.80;1.00
47384;DHT22;33129;52.232;5.192;2022-12-29T15:58:54;11.10;1.00
47384;DHT22;33129;52.232;5.192;2022-12-29T16:01:31;11.10;1.00
47384;DHT22;33129;52.232;5.192;2022-12-29T16:04:00;10.90;1.00
47384;DHT22;33129;52.232;5.192;2022-12-29T16:06:33;11.00;1.00
47384;DHT22;33129;52.232;5.192;2022-12-29T16:09:13;10.90;1.00
47384;DHT22;33129;52.232;5.192;2022-12-29T16:11:46;10.90;1.00
47384;DHT22;33129;52.232;5.192;2022-12-29T16:14:40;11.00;1.00
47384;DHT22;33129;52.232;5.192;2022-12-29T16:17:28;11.00;1.00
47384;DHT22;33129;52.232;5.192;2022-12-29T16:20:03;11.00;1.00
47384;DHT22;33129;52.232;5.192;2022-12-29T16:22:36;11.20;1.00
47384;DHT22;33129;52.232;5.192;2022-12-29T16:25:20;11.00;1.00
47384;DHT22;33129;52.232;5.192;2022-12-29T16:27:49;11.10;1.00
47384;DHT22;33129;52.232;5.192;2022-12-29T16:30:29;11.00;1.00
47384;DHT22;33129;52.232;5.192;2022-12-29T16:33:01;10.80;1.00
47384;DHT22;33129;52.232;5.192;2022-12-29T16:35:46;10.90;1.00
47384;DHT22;33129;52.232;5.192;2022-12-29T16:38:16;10.70;1.00
47384;DHT22;33129;52.232;5.192;2022-12-29T16:40:56;10.80;1.00
47384;DHT22;33129;52.232;5.192;2022-12-29T16:43:31;11.00;1.00
47384;DHT22;33129;52.232;5.192;2022-12-29T16:48:27;10.90;1.00
47384;DHT22;33129;52.232;5.192;2022-12-29T16:51:13;10.80;1.00
47384;DHT22;33129;52.232;5.192;2022-12-29T16:53:47;11.10;1.00
47384;DHT22;33129;52.232;5.192;2022-12-29T16:56:17;10.80;1.00
47384;DHT22;33129;52.232;5.192;2022-12-29T16:58:49;11.00;1.00
47384;DHT22;33129;52.232;5.192;2022-12-29T17:01:19;10.90;1.00
47384;DHT22;33129;52.232;5.192;2022-12-29T17:03:49;10.50;1.00
47384;DHT22;33129;52.232;5.192;2022-12-29T17:06:19;10.70;1.00
47384;DHT22;33129;52.232;5.192;2022-12-29T17:08:47;10.80;1.00
47384;DHT22;33129;52.232;5.192;2022-12-29T17:11:33;10.40;1.00
47384;DHT22;33129;52.232;5.192;2022-12-29T17:16:47;10.50;1.00
47384;DHT22;33129;52.232;5.192;2022-12-29T17:19:29;10.50;1.00
47384;DHT22;33129;52.232;5.192;2022-12-29T17:21:56;10.60;1.00
47384;DHT22;33129;52.232;5.192;2022-12-29T17:24:22;10.70;1.00
47384;DHT22;33129;52.232;5.192;2022-12-29T17:26:51;10.50;1.00
47384;DHT22;33129;52.232;5.192;2022-12-29T17:29:26;10.40;1.00
47384;DHT22;33129;52.232;5.192;2022-12-29T17:31:55;10.40;1.00
47384;DHT22;33129;52.232;5.192;2022-12-29T17:34:21;10.30;1.00
47384;DHT22;33129;52.232;5.192;2022-12-29T17:36:47;10.40;1.00
47384;DHT22;33129;52.232;5.192;2022-12-29T17:39:13;10.20;1.00
47384;DHT22;33129;52.232;5.192;2022-12-29T17:41:39;10.10;1.00
47384;DHT22;33129;52.232;5.192;2022-12-29T17:44:06;10.20;1.00
47384;DHT22;33129;52.232;5.192;2022-12-29T17:46:33;10.20;1.00
47384;DHT22;33129;52.232;5.192;2022-12-29T17:48:59;10.20;1.00
47384;DHT22;33129;52.232;5.192;2022-12-29T17:51:25;10.00;1.00
47384;DHT22;33129;52.232;5.192;2022-12-29T17:53:50;10.30;1.00
47384;DHT22;33129;52.232;5.192;2022-12-29T17:56:17;10.20;1.00
47384;DHT22;33129;52.232;5.192;2022-12-29T17:58:47;10.10;1.00
47384;DHT22;33129;52.232;5.192;2022-12-29T18:01:13;9.90;1.00
47384;DHT22;33129;52.232;5.192;2022-12-29T18:03:40;10.20;1.00
47384;DHT22;33129;52.232;5.192;2022-12-29T18:06:07;10.10;1.00
47384;DHT22;33129;52.232;5.192;2022-12-29T18:08:39;10.10;1.00
47384;DHT22;33129;52.232;5.192;2022-12-29T18:11:20;9.80;1.00
47384;DHT22;33129;52.232;5.192;2022-12-29T18:13:48;10.00;1.00
47384;DHT22;33129;52.232;5.192;2022-12-29T18:16:14;10.00;1.00